This is the latest recevied weather packets stored in our database for station/object W4MLN-1. If no packets are shown the sender has not sent any weather packets the latest 10 day(s).
| Time | Temp. | Humidity | Pressure | Rain* | Wind** | Luminosity | Snow |
|---|---|---|---|---|---|---|---|
| 1777689591 | 8.89° C | 75% | 1013.3 hPa | 0 mm | - | 0 W/m² | - |
| 1777689290 | 8.89° C | 74% | 1013.2 hPa | 0 mm | - | 0 W/m² | - |
| 1777688990 | 8.89° C | 74% | 1013.1 hPa | 0 mm | - | 0 W/m² | - |
| 1777688687 | 8.89° C | 75% | 1013.1 hPa | 0 mm | - | 0 W/m² | - |
| 1777687788 | 8.89° C | 74% | 1013.1 hPa | 0 mm | - | 0 W/m² | - |
| 1777670969 | 17.22° C | 37% | 1011.1 hPa | 0 mm | - | 407 W/m² | - |
| 1777670369 | 17.22° C | 37% | 1011.2 hPa | 0 mm | - | 488 W/m² | - |
| 1777669469 | 16.67° C | 37% | 1011.3 hPa | 0 mm | - | 523 W/m² | - |
| 1777668870 | 16.67° C | 38% | 1011.3 hPa | 0 mm | - | 460 W/m² | - |
| 1777667664 | 17.22° C | 38% | 1011.3 hPa | 0 mm | - | 509 W/m² | - |
| 1777667062 | 17.22° C | 38% | 1011.7 hPa | 0 mm | - | 504 W/m² | - |
| 1777666162 | 17.22° C | 40% | 1011.5 hPa | 0 mm | - | 736 W/m² | - |
| 1777665862 | 17.78° C | 40% | 1011.4 hPa | 0 mm | - | 712 W/m² | - |
| 1777664363 | 17.22° C | 38% | 1011.9 hPa | 0 mm | - | 370 W/m² | - |
| 1777664062 | 17.78° C | 39% | 1011.9 hPa | 0 mm | - | 352 W/m² | - |
| 1777660759 | 17.78° C | 47% | 1012.3 hPa | 0 mm | - | 1060 W/m² | - |
| 1777660457 | 17.78° C | 43% | 1012.4 hPa | 0 mm | - | 1035 W/m² | - |
| 1777660156 | 17.78° C | 46% | 1012.3 hPa | 0 mm | - | 1086 W/m² | - |
| 1777659557 | 17.78° C | 44% | 1012.3 hPa | 0 mm | - | 809 W/m² | - |
| 1777656855 | 16.11° C | 51% | 1012.7 hPa | 0 mm | - | 356 W/m² | - |
| 1777656255 | 15.56° C | 52% | 1012.7 hPa | 0 mm | - | 1065 W/m² | - |
| 1777654756 | 15.56° C | 53% | 1013.4 hPa | 0 mm | - | 500 W/m² | - |
| 1777653552 | 15.56° C | 52% | 1013.6 hPa | 0 mm | - | 583 W/m² | - |
| 1777652953 | 15.56° C | 51% | 1013.6 hPa | 0 mm | - | 1221 W/m² | - |
| 1777652653 | 15° C | 56% | 1013.7 hPa | 0 mm | - | 1199 W/m² | - |
* Rain latest hour (hover to see other rain measurements)
** Current wind speed in m/s (hover to see current wind gust speed)